Impacts METAR Board
IDs:

KCVG - Cincinnati Intl, KY, US

Updated at: 2200 UTC 01 Feb 2023
Potential Impact None Slight Moderate High
Time 01/10Z 01/11Z 01/12Z 01/13Z 01/14Z 01/15Z 01/16Z 01/17Z 01/18Z 01/19Z 01/20Z 01/21Z 01/22Z
Temp19 18 17 16 19 22 23 25 27 28 29 30 30
Dewpt14 13 13 12 12 12 13 10 10 10 12 8 8
Altim30.34 30.34 30.36 30.39 30.40 30.39 30.40 30.39 30.38 30.34 30.33 30.31 30.31
VIS10 10 10 10 10 10 10 10 10 10 10 10 10
CIG210 210 -- -- 250 230 250 250 200 180 -- -- 250
CoverBKNBKNSCTSCTBKNBKNBKNBKNBKNOVCFEWSCTBKN
FltCatVFRVFRVFRVFRVFRVFRVFRVFRVFRVFRVFRVFRVFR
WX--------------------------
WDir3503603603601060900310032000
WSpd8 8 6 5 9 4 3 0 3 0 3 0 0
WGst-- -- -- -- -- -- -- -- -- -- -- -- --
Raw hourly METARs
KCVG 010952Z 35008KT 10SM BKN210 M07/M10 A3034 RMK AO2 SLP285 T10721100
KCVG 011052Z 36008KT 10SM BKN210 M08/M11 A3034 RMK AO2 SLP286 T10781106
KCVG 011152Z 36006KT 10SM SCT250 M08/M11 A3036 RMK AO2 SLP293 T10831106 11056 21083 51014
KCVG 011252Z 36005KT 10SM SCT250 M09/M11 A3039 RMK AO2 SLP304 T10891111
KCVG 011352Z 01009KT 10SM FEW230 BKN250 M07/M11 A3040 RMK AO2 SLP304 T10721111
KCVG 011452Z 06004KT 10SM FEW140 SCT190 BKN230 M06/M11 A3039 RMK AO2 SLP302 T10561111 50009
KCVG 011552Z 09003KT 10SM FEW140 SCT200 BKN250 M05/M11 A3040 RMK AO2 SLP304 T10501106
KCVG 011652Z 00000KT 10SM FEW120 SCT200 BKN250 M04/M12 A3039 RMK AO2 SLP300 T10391122
KCVG 011752Z 31003KT 10SM FEW120 BKN200 BKN250 M03/M12 A3038 RMK AO2 SLP296 T10281122 11028 21089 58005
KCVG 011852Z 00000KT 10SM SCT120 BKN180 OVC230 M02/M12 A3034 RMK AO2 SLP285 BINOVC T10221122
KCVG 011952Z 32003KT 10SM FEW200 FEW250 M02/M11 A3033 RMK AO2 SLP278 T10171111
KCVG 012052Z 00000KT 10SM SCT250 M01/M13 A3031 RMK AO2 SLP274 T10111133 56021
KCVG 012152Z 00000KT 10SM FEW210 BKN250 M01/M13 A3031 RMK AO2 SLP274 T10111133



Page loaded:  22:36 UTC  |   02:36 PM Pacific  |   03:36 PM Mountain  |   04:36 PM Central  |   05:36 PM Eastern

 

ADVISORIES

FORECASTS

FORECASTS

OBSERVATIONS

USER TOOLS

ABOUT US